Airfield :
LOGIN :

Register | Disclaimer

   EN    FR    IT 

 










Legend :    VFR   Marginal VFR   IFR   Intensive IFR   Very Intensive IFR
Visi :
Ceiling :
>= 8 km
>= 3000ft
5 to 8 km
1000 to 3000 ft
1500m to 5 km
500 to 1000 ft
800 to 1500m
200 to 500 ft
< 800m
< 200 ft
Symbols :   Thunderstorms  Fog  Heavy snow  Heavy precipitations  Wind > 20 kt
SIGMETs :     Misc.  Thunderstorms  Icing  Turbulence  Mountain Waves  Volcanic Ashes







- Airport Elevation : 779 ft
- IATA code : CMF
- Download approach charts


LFLB - Chambery / Aix-Les-Bains

CURRENT METAR :
  • 210800Z AUTO 16002KT 4200 BR BKN080 M02/M02 Q1018 TEMPO BKN010

EXPIRED METARs :
  • 210730Z AUTO 20002KT 4400 UP BR FEW056 BKN080 M01/M02 Q1018
  • 210700Z AUTO VRB02KT 4100 BR BKN054 M02/M03 Q1017 TEMPO BKN010
  • 210630Z AUTO VRB02KT 3900 BR FEW052 M02/M02 Q1017 TEMPO BKN010
  • 210600Z AUTO 00000KT 4500 BR BKN052 M01/M01 Q1017 TEMPO BKN010 BECMG 7000 NSW
  • 210530Z AUTO VRB02KT 6000 FEW052 M01/M02 Q1016 TEMPO BKN010

TAF AMD TAF LFLB
Valid from the 21 at 06:00 until the 22 at 06:00 UTC


210611Z 2106/2206 VRB04KT 7000 BKN040
PROB40
TEMPO 2106/2112 4000 BR BKN010
BECMG 2118/2121 BKN014
PROB40
TEMPO 2200/2206 BKN006
No reported NOTAMs for that airfield.



MET'MAP, your aeronautical weather chart ! - Copyright ORBIFLY December 2007 - Disclaimer

ORBIFLY MET'MAP TEAM :

Programming & Development : Alexandra Zaïnal
Concept & Development : Baudouin d'Aumeries
Co-Development & Prog : Marc-Olivier Méhu
Technical & hardware support : Manuel Goepfert

Contact : metmap@orbifly.com




SOURCES & CREDITS :

   NOAA